Latest Weather Observations for Shark Bay Airport

IDW60801

Issued at 4:33 pm WST Wednesday 28 June 2017 (issued every 30 minutes, with the page automatically refreshed every 10 minutes)

About weather observations | Map of weather stations | Latest weather observations for WA | Other Formats
Station Details ID: 006105 Name: SHARK BAY AIRPORT Lat: -25.89 Lon: 113.58 Height: 33.8 m
Data from the previous 72 hours. | See also: Recent months at Shark Bay Airport
Date/Time
WST
Temp
°C
App
Temp
°C
Dew
Point
°C
Rel
Hum
%
Delta-T
°C
Wind Press
QNH
hPa
Press
MSL
hPa
Rain since
9am
mm
Dir  Spd
km/h
Gust
km/h
Spd
kts
Gust
kts
28/04:30pm 20.7 15.0 -0.6 24 9.3 ESE 19 26 10 14 1023.9 1023.8 0.0
28/04:00pm 20.9 15.1 -0.4 24 9.4 ESE 20 32 11 17 1024.1 1024.0 0.0
28/03:30pm 20.7 14.5 -0.6 24 9.4 ESE 22 32 12 17 1024.1 1024.0 0.0
28/03:00pm 21.3 15.0 -1.3 22 9.8 ESE 22 30 12 16 1024.0 1023.9 0.0
28/02:30pm 21.0 13.9 -0.9 23 9.6 ESE 26 39 14 21 1024.1 1024.0 0.0
28/02:00pm 20.7 13.7 -0.6 24 9.3 E 26 39 14 21 1024.5 1024.4 0.0
28/01:30pm 20.5 13.6 0.4 26 9.0 E 26 35 14 19 1024.6 1024.5 0.0
28/01:00pm 20.0 12.8 1.0 28 8.5 E 28 39 15 21 1025.0 1024.9 0.0
28/12:30pm 19.4 12.2 0.9 29 8.3 E 28 37 15 20 1025.6 1025.5 0.0
28/12:00pm 19.4 13.2 1.9 31 8.0 E 24 33 13 18 1026.0 1025.9 0.0
28/11:30am 18.6 11.9 1.6 32 7.7 E 26 35 14 19 1026.3 1026.2 0.0
28/11:00am 17.8 10.3 1.3 33 7.3 E 30 41 16 22 1026.6 1026.5 0.0
28/10:30am 17.9 10.6 2.6 36 7.0 ENE 30 41 16 22 1026.9 1026.8 0.0
28/10:00am 17.4 10.4 2.2 36 6.8 E 28 39 15 21 1027.2 1027.1 0.0
28/09:30am 16.7 9.8 2.7 39 6.4 E 28 39 15 21 1027.3 1027.2 0.0
28/09:00am 15.8 8.5 2.6 41 5.9 E 30 37 16 20 1027.2 1027.1 0.0
28/08:30am 15.1 9.0 2.6 43 5.6 E 24 33 13 18 1027.0 1026.9 0.0
28/08:00am 13.7 8.4 3.2 49 4.7 E 20 28 11 15 1026.8 1026.7 0.0
28/07:30am 11.5 6.8 3.3 57 3.6 E 17 20 9 11 1026.6 1026.5 0.0
28/07:00am 10.7 6.4 3.3 60 3.2 ESE 15 19 8 10 1026.4 1026.3 0.0
28/06:30am 10.9 6.3 3.7 61 3.2 ESE 17 20 9 11 1026.0 1025.9 0.0
28/06:00am 11.1 6.5 3.6 60 3.3 ESE 17 20 9 11 1025.8 1025.7 0.0
28/05:30am 11.6 7.0 3.6 58 3.5 ESE 17 20 9 11 1025.5 1025.4 0.0
28/05:00am 12.3 7.3 3.8 56 3.8 ESE 19 24 10 13 1025.2 1025.1 0.0
28/04:30am 12.8 7.6 3.7 54 4.1 ESE 20 26 11 14 1025.3 1025.2 0.0
28/04:00am 12.8 8.3 4.0 55 4.0 ESE 17 26 9 14 1025.2 1025.1 0.0
28/03:30am 12.6 8.2 4.6 58 3.7 ESE 17 24 9 13 1025.1 1025.0 0.0
28/03:00am 12.1 8.0 4.1 58 3.6 SE 15 20 8 11 1025.1 1025.0 0.0
28/02:30am 12.7 8.2 4.4 57 3.8 SE 17 24 9 13 1025.2 1025.1 0.0
28/02:00am 12.6 7.8 4.6 58 3.6 SE 19 22 10 12 1025.1 1025.0 0.0
28/01:30am 11.7 7.2 4.0 59 3.5 SE 17 20 9 11 1025.2 1025.1 0.0
28/01:00am 11.9 7.3 3.9 58 3.6 SE 17 22 9 12 1025.3 1025.2 0.0
28/12:30am 12.0 7.5 4.2 59 3.5 SE 17 20 9 11 1025.2 1025.1 0.0
28/12:00am 12.4 7.9 4.1 57 3.7 SE 17 22 9 12 1025.5 1025.4 0.0
 
Date/Time
WST
Temp
°C
App
Temp
°C
Dew
Point
°C
Rel
Hum
%
Delta-T
°C
Wind Press
QNH
hPa
Press
MSL
hPa
Rain since
9am
mm
Dir  Spd
km/h
Gust
km/h
Spd
kts
Gust
kts
27/11:30pm 11.5 7.2 3.5 58 3.5 SE 15 17 8 9 1025.5 1025.4 0.0
27/11:00pm 12.9 8.6 3.3 52 4.3 SE 15 19 8 10 1025.5 1025.4 0.0
27/10:30pm 12.6 8.3 3.0 52 4.2 SE 15 19 8 10 1025.6 1025.5 0.0
27/10:00pm 13.4 8.7 2.9 49 4.6 SE 17 20 9 11 1025.6 1025.5 0.0
27/09:30pm 13.7 9.1 3.8 51 4.5 SE 17 20 9 11 1025.4 1025.3 0.0
27/09:00pm 12.7 8.1 3.9 55 3.9 SSE 17 20 9 11 1025.3 1025.2 0.0
27/08:30pm 11.9 7.7 3.7 57 3.7 SSE 15 19 8 10 1025.1 1025.0 0.0
27/08:00pm 12.3 7.9 2.7 52 4.2 SSE 15 17 8 9 1024.8 1024.7 0.0
27/07:30pm 12.1 8.0 2.0 50 4.3 SSE 13 17 7 9 1024.6 1024.5 0.0
27/07:00pm 13.5 8.8 1.2 43 5.2 S 15 17 8 9 1024.4 1024.3 0.0
27/06:30pm 15.6 10.5 0.6 36 6.5 SSE 17 19 9 10 1024.4 1024.3 0.0
27/06:00pm 16.7 12.2 -0.5 31 7.3 SE 13 15 7 8 1024.2 1024.1 0.0
27/05:30pm 19.1 13.5 -0.3 27 8.5 SE 19 28 10 15 1024.0 1023.9 0.0
27/05:00pm 19.9 13.3 -0.1 26 8.8 SE 24 33 13 18 1023.7 1023.6 0.0
27/04:30pm 20.3 13.7 -0.3 25 9.1 SE 24 35 13 19 1023.7 1023.6 0.0
27/04:00pm 20.6 13.3 -0.1 25 9.1 SE 28 35 15 19 1023.7 1023.6 0.0
27/03:30pm 21.0 15.0 0.8 26 9.2 SE 22 35 12 19 1023.6 1023.5 0.0
27/03:00pm 21.0 14.9 0.2 25 9.3 SE 22 32 12 17 1023.7 1023.6 0.0
27/02:30pm 20.6 13.4 0.4 26 9.0 ESE 28 37 15 20 1023.8 1023.7 0.0
27/02:00pm 20.6 14.3 1.5 28 8.7 ESE 24 33 13 18 1024.0 1023.9 0.0
27/01:30pm 20.0 13.3 1.4 29 8.5 SE 26 39 14 21 1024.2 1024.1 0.0
27/01:00pm 19.9 12.9 1.8 30 8.2 ESE 28 41 15 22 1024.6 1024.5 0.0
27/12:30pm 19.7 13.0 1.7 30 8.2 ESE 26 35 14 19 1025.0 1024.9 0.0
27/12:00pm 19.2 12.4 3.0 34 7.5 ESE 28 37 15 20 1025.6 1025.5 0.0
27/11:30am 19.1 12.3 3.3 35 7.4 ESE 28 41 15 22 1026.1 1026.0 0.0
27/11:00am 19.0 12.4 4.0 37 7.1 ESE 28 35 15 19 1026.4 1026.3 0.0
27/10:30am 18.2 11.2 4.0 39 6.7 ESE 30 41 16 22 1026.7 1026.6 0.0
27/10:00am 17.7 11.1 4.3 41 6.3 ESE 28 37 15 20 1026.6 1026.5 0.0
27/09:30am 16.8 10.6 4.5 44 5.8 ESE 26 35 14 19 1026.7 1026.6 0.0
27/09:00am 15.4 9.2 4.5 48 5.1 ESE 26 37 14 20 1026.6 1026.5 0.0
27/08:30am 13.8 7.7 4.7 54 4.2 SE 26 35 14 19 1026.3 1026.2 0.0
27/08:00am 12.0 7.0 4.5 60 3.4 SE 20 28 11 15 1026.0 1025.9 0.0
27/07:30am 10.3 5.5 4.7 68 2.5 SE 19 22 10 12 1025.6 1025.5 0.0
27/07:00am 9.6 5.4 4.0 68 2.4 SE 15 19 8 10 1025.4 1025.3 0.0
27/06:30am 10.2 5.7 4.4 67 2.6 SE 17 20 9 11 1025.0 1024.9 0.0
27/06:00am 10.6 6.2 4.5 66 2.7 SE 17 24 9 13 1024.6 1024.5 0.0
27/05:30am 10.2 5.7 4.1 66 2.7 SE 17 20 9 11 1024.3 1024.2 0.0
27/05:00am 10.9 6.1 4.4 64 2.9 SE 19 22 10 12 1024.2 1024.1 0.0
27/04:30am 11.2 6.1 4.2 62 3.1 SE 20 26 11 14 1024.0 1023.9 0.0
27/04:00am 10.9 6.3 3.5 60 3.2 SE 17 24 9 13 1024.1 1024.0 0.0
27/03:30am 10.6 5.9 3.2 60 3.2 SSE 17 20 9 11 1024.1 1024.0 0.0
27/03:00am 10.6 6.3 3.2 60 3.2 SE 15 20 8 11 1024.2 1024.1 0.0
27/02:30am 10.6 5.9 2.9 59 3.3 SSE 17 20 9 11 1024.3 1024.2 0.0
27/02:00am 11.4 7.0 2.9 56 3.7 SE 15 19 8 10 1024.4 1024.3 0.0
27/01:30am 12.2 7.5 2.9 53 4.1 SE 17 26 9 14 1024.3 1024.2 0.0
27/01:00am 12.8 7.5 2.9 51 4.3 SE 20 28 11 15 1024.3 1024.2 0.0
27/12:30am 13.1 7.4 2.9 50 4.5 SE 22 30 12 16 1024.1 1024.0 0.0
27/12:00am 13.3 7.6 3.1 50 4.5 SE 22 30 12 16 1024.2 1024.1 0.0
 
Date/Time
WST
Temp
°C
App
Temp
°C
Dew
Point
°C
Rel
Hum
%
Delta-T
°C
Wind Press
QNH
hPa
Press
MSL
hPa
Rain since
9am
mm
Dir  Spd
km/h
Gust
km/h
Spd
kts
Gust
kts
26/11:30pm 13.7 8.1 3.5 50 4.6 SSE 22 30 12 16 1024.1 1024.0 0.0
26/11:00pm 13.8 8.8 4.4 53 4.3 SSE 20 30 11 16 1024.3 1024.2 0.0
26/10:30pm 14.0 9.2 5.4 56 4.0 SSE 20 30 11 16 1024.1 1024.0 0.0
26/10:00pm 14.0 9.7 6.8 62 3.5 SSE 19 24 10 13 1023.9 1023.8 0.0
26/09:30pm 14.3 10.7 8.5 68 2.9 SSE 17 22 9 12 1023.8 1023.7 0.0
26/09:00pm 15.0 11.7 9.4 69 2.9 SSE 17 22 9 12 1023.6 1023.5 0.0
26/08:30pm 15.6 12.3 9.7 68 3.1 SSE 17 26 9 14 1023.5 1023.4 0.0
26/08:00pm 15.9 12.3 9.8 67 3.2 S 19 24 10 13 1023.3 1023.2 0.0
26/07:30pm 16.1 12.4 9.5 65 3.4 S 19 26 10 14 1023.1 1023.0 0.0
26/07:00pm 15.9 12.4 8.9 63 3.6 S 17 26 9 14 1022.9 1022.8 0.0
26/06:30pm 16.2 12.7 8.9 62 3.8 S 17 24 9 13 1022.6 1022.6 0.0
26/06:00pm 16.9 12.9 8.3 57 4.4 S 19 24 10 13 1022.3 1022.3 0.0
26/05:30pm 17.9 14.1 7.6 51 5.2 S 17 24 9 13 1022.2 1022.2 0.0
26/05:00pm 19.1 14.1 6.6 44 6.2 S 22 32 12 17 1021.9 1021.9 0.0
26/04:30pm 20.0 14.8 7.1 43 6.6 S 24 39 13 21 1021.5 1021.5 0.0
26/04:00pm 21.4 15.2 2.2 28 8.9 ESE 24 33 13 18 1021.4 1021.4 0.0
26/03:30pm 21.2 15.4 2.5 29 8.8 SE 22 33 12 18 1021.4 1021.4 0.0
26/03:00pm 21.2 15.6 3.4 31 8.5 SE 22 32 12 17 1021.5 1021.5 0.0
26/02:30pm 21.3 16.1 3.5 31 8.5 SE 20 30 11 16 1021.5 1021.5 0.0
26/02:00pm 21.3 16.2 4.0 32 8.3 SE 20 32 11 17 1021.5 1021.5 0.0
26/01:30pm 21.0 14.5 4.6 34 8.0 SE 28 35 15 19 1021.6 1021.6 0.0
26/01:00pm 20.5 14.3 4.5 35 7.7 SE 26 35 14 19 1021.9 1021.9 0.0
26/12:30pm 20.2 13.8 5.1 37 7.4 SSE 28 39 15 21 1022.3 1022.3 0.0
26/12:00pm 20.4 15.4 6.4 40 7.0 ESE 22 30 12 16 1022.9 1022.8 0.0
26/11:30am 19.8 15.3 6.9 43 6.5 ESE 20 28 11 15 1023.4 1023.3 0.0
26/11:00am 19.4 15.1 7.2 45 6.2 ESE 19 26 10 14 1023.6 1023.5 0.0
26/10:30am 18.5 13.9 6.7 46 5.9 ESE 20 26 11 14 1024.0 1023.9 0.0
26/10:00am 17.6 12.6 6.5 48 5.5 ESE 22 30 12 16 1024.0 1023.9 0.0
26/09:30am 17.3 12.4 7.1 51 5.1 ESE 22 28 12 15 1024.0 1023.9 0.0
26/09:00am 16.1 12.1 8.1 59 4.0 SE 19 28 10 15 1023.9 1023.8 0.0
26/08:30am 13.1 9.6 7.3 68 2.8 SE 15 20 8 11 1023.6 1023.5 0.0
26/08:00am 10.5 7.5 6.1 74 2.0 SSE 11 17 6 9 1023.3 1023.2 0.0
26/07:30am 9.0 5.9 5.6 79 1.5 SE 11 15 6 8 1022.6 1022.6 0.0
26/07:00am 9.1 5.7 5.8 80 1.5 SSE 13 17 7 9 1022.2 1022.2 0.0
26/06:30am 8.4 4.7 4.4 76 1.8 SE 13 15 7 8 1021.7 1021.7 0.0
26/06:00am 8.7 5.7 4.1 73 2.0 SE 9 11 5 6 1021.6 1021.6 0.0
26/05:30am 10.0 6.8 5.0 71 2.3 SE 11 13 6 7 1021.3 1021.3 0.0
26/05:00am 11.7 8.7 5.8 67 2.7 SE 11 15 6 8 1021.3 1021.3 0.0
26/04:30am 12.5 8.8 6.1 65 3.0 SE 15 20 8 11 1021.2 1021.2 0.0
26/04:00am 12.6 8.5 6.0 64 3.1 ESE 17 20 9 11 1021.3 1021.3 0.0
26/03:30am 12.8 8.6 5.9 63 3.3 SE 17 20 9 11 1021.2 1021.2 0.0
26/03:00am 13.1 8.5 5.8 61 3.4 SE 19 26 10 14 1020.9 1020.9 0.0
26/02:30am 13.3 8.7 5.5 59 3.7 SE 19 24 10 13 1021.0 1021.0 0.0
26/02:00am 13.6 8.8 5.7 59 3.7 SSE 20 26 11 14 1021.2 1021.2 0.0
26/01:30am 13.8 9.3 5.9 59 3.8 SSE 19 28 10 15 1021.3 1021.3 0.0
26/01:00am 14.5 9.9 6.3 58 3.9 SE 20 28 11 15 1021.0 1021.0 0.0
26/12:30am 15.0 10.6 7.3 60 3.8 SSE 20 32 11 17 1021.1 1021.1 0.0
26/12:00am 15.0 10.6 7.3 60 3.8 SSE 20 30 11 16 1021.4 1021.4 0.0
 
Date/Time
WST
Temp
°C
App
Temp
°C
Dew
Point
°C
Rel
Hum
%
Delta-T
°C
Wind Press
QNH
hPa
Press
MSL
hPa
Rain since
9am
mm
Dir  Spd
km/h
Gust
km/h
Spd
kts
Gust
kts
25/11:30pm 15.4 10.7 7.9 61 3.8 SSE 22 33 12 18 1021.6 1021.6 0.0
25/11:00pm 15.7 11.2 8.7 63 3.6 SSE 22 30 12 16 1021.9 1021.9 0.0
25/10:30pm 15.8 11.8 9.0 64 3.5 SSE 20 30 11 16 1021.5 1021.5 0.0
25/10:00pm 16.1 12.3 9.8 66 3.3 SSE 20 30 11 16 1021.0 1021.0 0.0
25/09:30pm 16.1 12.7 10.4 69 3.0 SSE 19 26 10 14 1020.6 1020.6 0.0
25/09:00pm 16.5 13.0 10.8 69 3.0 SSE 20 30 11 16 1020.3 1020.3 0.0
25/08:30pm 16.9 13.5 11.2 69 3.1 SSE 20 30 11 16 1020.2 1020.2 0.0
25/08:00pm 17.4 13.8 11.7 69 3.1 SSE 22 32 12 17 1019.8 1019.8 0.0
25/07:30pm 17.7 14.1 11.9 69 3.2 S 22 33 12 18 1019.7 1019.7 0.0
25/07:00pm 18.0 13.4 12.2 69 3.2 S 28 41 15 22 1019.3 1019.3 0.0
25/06:30pm 18.3 13.7 12.3 68 3.3 S 28 39 15 21 1018.6 1018.6 0.0
25/06:00pm 18.6 14.6 11.9 65 3.7 S 24 43 13 23 1018.5 1018.5 0.0
25/05:30pm 19.3 15.1 11.1 59 4.5 S 24 37 13 20 1018.3 1018.3 0.0
25/05:00pm 20.3 15.7 11.0 55 5.1 S 26 39 14 21 1018.2 1018.2 0.0

Other Formats:

Comma delimited format used in spreadsheet applications
http://www.bom.gov.au/fwo/IDW60801/IDW60801.95402.axf

JavaScript Object Notation format (JSON) in row-major order
http://www.bom.gov.au/fwo/IDW60801/IDW60801.95402.json